createdAt,value
2019-03-15T00:00:03.686Z,8.70
2019-03-15T00:02:36.985Z,8.80
2019-03-15T00:05:09.644Z,8.80
2019-03-15T00:07:41.815Z,8.80
2019-03-15T00:10:14.803Z,8.80
2019-03-15T00:12:48.564Z,8.80
2019-03-15T00:15:21.763Z,8.80
2019-03-15T00:17:54.144Z,8.80
2019-03-15T00:20:27.266Z,8.70
2019-03-15T00:23:00.524Z,8.60
2019-03-15T00:25:33.583Z,8.60
2019-03-15T00:28:06.384Z,8.50
2019-03-15T00:30:38.948Z,8.60
2019-03-15T00:33:11.905Z,8.70
2019-03-15T00:35:44.865Z,8.70
2019-03-15T00:38:17.964Z,8.70
2019-03-15T00:40:50.184Z,8.60
2019-03-15T00:43:23.524Z,8.50
2019-03-15T00:45:56.528Z,8.30
2019-03-15T00:48:29.764Z,8.30
2019-03-15T00:51:02.424Z,8.40
2019-03-15T00:53:34.952Z,8.40
2019-03-15T00:56:07.069Z,8.30
2019-03-15T00:58:40.427Z,8.20
2019-03-15T01:01:12.787Z,8.20
2019-03-15T01:03:44.885Z,8.30
2019-03-15T01:06:18.324Z,8.20
2019-03-15T01:08:50.983Z,8.10
2019-03-15T01:11:23.304Z,8.20
2019-03-15T01:13:56.005Z,8.20
2019-03-15T01:16:28.704Z,8.30
2019-03-15T01:19:02.305Z,8.30
2019-03-15T01:21:35.152Z,8.50
2019-03-15T01:24:07.664Z,8.50
2019-03-15T01:26:41.010Z,8.50
2019-03-15T01:29:14.165Z,8.40
2019-03-15T01:31:46.664Z,8.40
2019-03-15T01:34:20.047Z,8.50
2019-03-15T01:36:52.305Z,8.60
2019-03-15T01:39:25.285Z,8.50
2019-03-15T01:41:58.738Z,8.50
2019-03-15T01:44:31.126Z,8.50
2019-03-15T01:47:03.164Z,8.60
2019-03-15T01:49:35.804Z,8.60
2019-03-15T01:52:09.144Z,8.70
2019-03-15T01:54:41.504Z,8.70
2019-03-15T01:57:13.906Z,8.70
2019-03-15T01:59:47.185Z,8.70
2019-03-15T02:02:20.784Z,8.60
2019-03-15T02:04:53.527Z,8.60
2019-03-15T02:07:25.984Z,8.70
2019-03-15T02:09:58.464Z,8.70
2019-03-15T02:12:31.925Z,8.80
2019-03-15T02:15:05.563Z,8.70
2019-03-15T02:17:37.644Z,8.70
2019-03-15T02:20:10.948Z,8.70
2019-03-15T02:22:44.105Z,8.70
2019-03-15T02:25:16.204Z,8.80
2019-03-15T02:27:48.844Z,8.80
2019-03-15T02:30:21.987Z,8.80
2019-03-15T02:32:55.343Z,8.80
2019-03-15T02:35:27.803Z,8.70
2019-03-15T02:38:00.383Z,8.70
2019-03-15T02:40:33.185Z,8.70
2019-03-15T02:43:05.565Z,8.80
2019-03-15T02:45:38.885Z,8.70
2019-03-15T02:48:10.645Z,8.70
2019-03-15T02:50:43.666Z,8.70
2019-03-15T02:53:17.026Z,8.70
2019-03-15T02:55:50.310Z,8.70
2019-03-15T02:58:24.025Z,8.70
2019-03-15T03:00:56.404Z,8.70
2019-03-15T03:03:28.884Z,8.60
2019-03-15T03:06:01.848Z,8.60
2019-03-15T03:08:35.426Z,8.60
2019-03-15T03:11:08.744Z,8.70
2019-03-15T03:13:41.084Z,8.70
2019-03-15T03:16:13.947Z,8.70
2019-03-15T03:18:46.485Z,8.70
2019-03-15T03:21:18.704Z,8.70
2019-03-15T03:23:51.269Z,8.70
2019-03-15T03:26:22.944Z,8.70
2019-03-15T03:28:55.325Z,8.70
2019-03-15T03:31:28.408Z,8.60
2019-03-15T03:34:01.200Z,8.50
2019-03-15T03:36:33.824Z,8.50
2019-03-15T03:39:07.223Z,8.50
2019-03-15T03:41:39.905Z,8.50
2019-03-15T03:44:13.044Z,8.50
2019-03-15T03:46:46.344Z,8.50
2019-03-15T03:49:18.823Z,8.50
2019-03-15T03:51:51.106Z,8.50
2019-03-15T03:54:23.903Z,8.50
2019-03-15T03:56:56.425Z,8.50
2019-03-15T03:59:29.144Z,8.40
2019-03-15T04:02:02.004Z,8.50
2019-03-15T04:04:34.726Z,8.50
2019-03-15T04:07:07.284Z,8.50
2019-03-15T04:09:40.386Z,8.50
2019-03-15T04:12:13.305Z,8.50
2019-03-15T04:14:45.985Z,8.50
2019-03-15T04:17:18.845Z,8.60
2019-03-15T04:19:50.964Z,8.60
2019-03-15T04:22:23.984Z,8.60
2019-03-15T04:24:56.183Z,8.60
2019-03-15T04:27:28.224Z,8.60
2019-03-15T04:30:01.222Z,8.60
2019-03-15T04:32:34.272Z,8.60
2019-03-15T04:35:08.387Z,8.60
2019-03-15T04:37:40.985Z,8.70
2019-03-15T04:40:13.905Z,8.70
2019-03-15T04:42:46.665Z,8.80
2019-03-15T04:45:20.605Z,8.80
2019-03-15T04:47:53.406Z,8.90
2019-03-15T04:50:26.887Z,8.90
2019-03-15T04:53:00.225Z,8.90
2019-03-15T04:55:32.625Z,8.90
2019-03-15T04:58:05.224Z,8.90
2019-03-15T05:00:37.545Z,8.90
2019-03-15T05:03:11.165Z,9.00
2019-03-15T05:05:44.206Z,9.00
2019-03-15T05:08:17.185Z,8.90
2019-03-15T05:10:49.853Z,8.90
2019-03-15T05:13:22.545Z,9.00
2019-03-15T05:15:55.526Z,9.00
2019-03-15T05:18:28.126Z,9.00
2019-03-15T05:21:01.345Z,9.00
2019-03-15T05:23:34.958Z,9.00
2019-03-15T05:26:07.726Z,9.00
2019-03-15T05:28:40.725Z,9.10
2019-03-15T05:31:14.326Z,9.10
2019-03-15T05:33:47.666Z,9.10
2019-03-15T05:36:20.065Z,9.00
2019-03-15T05:38:52.829Z,9.00
2019-03-15T05:41:25.667Z,9.00
2019-03-15T05:43:58.955Z,9.10
2019-03-15T05:46:31.584Z,9.20
2019-03-15T05:49:04.286Z,9.20
2019-03-15T05:51:37.005Z,9.20
2019-03-15T05:54:09.325Z,9.10
2019-03-15T05:56:41.785Z,9.00
2019-03-15T05:59:15.045Z,9.00
2019-03-15T06:01:48.386Z,9.00
2019-03-15T06:04:20.925Z,9.00
2019-03-15T06:06:53.025Z,9.00
2019-03-15T06:09:25.546Z,9.00
2019-03-15T06:11:57.479Z,9.00
2019-03-15T06:14:29.945Z,9.00
2019-03-15T06:17:02.425Z,9.10
2019-03-15T06:19:35.468Z,9.00
2019-03-15T06:22:08.585Z,9.10
2019-03-15T06:24:41.427Z,9.10
2019-03-15T06:27:13.505Z,9.10
2019-03-15T06:29:46.826Z,9.10
2019-03-15T06:32:19.784Z,9.10
2019-03-15T06:34:53.094Z,9.10
2019-03-15T06:37:24.865Z,9.10
2019-03-15T06:39:57.445Z,9.10
2019-03-15T06:42:31.126Z,9.10
2019-03-15T06:45:04.426Z,9.10
2019-03-15T06:47:36.165Z,9.10
2019-03-15T06:50:09.505Z,9.10
2019-03-15T06:52:42.585Z,9.10
2019-03-15T06:55:16.385Z,9.10
2019-03-15T06:57:49.105Z,9.10
2019-03-15T07:00:21.885Z,9.00
2019-03-15T07:02:55.025Z,9.00
2019-03-15T07:05:27.865Z,9.00
2019-03-15T07:08:00.205Z,8.90
2019-03-15T07:10:32.465Z,8.80
2019-03-15T07:13:05.874Z,8.90
2019-03-15T07:15:38.145Z,8.90
2019-03-15T07:18:11.426Z,8.80
2019-03-15T07:20:43.365Z,8.80
2019-03-15T07:23:16.063Z,8.90
2019-03-15T07:25:49.167Z,8.90
2019-03-15T07:28:21.345Z,8.80
2019-03-15T07:30:53.686Z,8.80
2019-03-15T07:33:26.026Z,8.80
2019-03-15T07:35:59.582Z,8.70
2019-03-15T07:38:33.505Z,8.70
2019-03-15T07:41:06.244Z,8.70
2019-03-15T07:43:38.785Z,8.70
2019-03-15T07:46:10.886Z,8.70
2019-03-15T07:48:42.825Z,8.70
2019-03-15T07:51:15.886Z,8.70
2019-03-15T07:53:49.172Z,8.60
2019-03-15T07:56:22.452Z,8.50
2019-03-15T07:58:56.632Z,8.50
2019-03-15T08:01:29.676Z,8.50
2019-03-15T08:04:15.623Z,8.50
2019-03-15T08:06:36.482Z,8.50
2019-03-15T08:09:10.216Z,8.60
2019-03-15T08:11:43.476Z,8.60
2019-03-15T08:14:16.457Z,8.60
2019-03-15T08:16:49.235Z,8.70
2019-03-15T08:19:21.384Z,8.70
2019-03-15T08:21:56.619Z,8.80
2019-03-15T08:24:27.748Z,8.70
2019-03-15T08:27:01.385Z,8.70
2019-03-15T08:29:35.187Z,8.60
2019-03-15T08:32:06.305Z,8.60
2019-03-15T08:34:39.916Z,8.60
2019-03-15T08:37:13.179Z,8.60
2019-03-15T08:39:45.236Z,8.60
2019-03-15T08:42:17.054Z,8.50
2019-03-15T08:44:50.154Z,8.50
2019-03-15T08:47:23.234Z,8.40
2019-03-15T08:49:55.695Z,8.30
2019-03-15T08:52:27.403Z,8.20
2019-03-15T08:55:05.035Z,8.20
2019-03-15T08:57:33.194Z,8.10
2019-03-15T09:00:06.334Z,8.00
2019-03-15T09:02:38.497Z,8.10
2019-03-15T09:05:11.575Z,8.00
2019-03-15T09:07:44.907Z,8.00
2019-03-15T09:10:23.148Z,8.00
2019-03-15T09:12:51.874Z,8.00
2019-03-15T09:15:24.414Z,7.90
2019-03-15T09:17:57.754Z,8.00
2019-03-15T09:20:30.760Z,8.00
2019-03-15T09:23:03.142Z,8.00
2019-03-15T09:25:35.994Z,7.90
2019-03-15T09:28:08.595Z,8.00
2019-03-15T09:30:40.656Z,8.00
2019-03-15T09:33:13.461Z,8.00
2019-03-15T09:35:45.941Z,8.00
2019-03-15T09:38:18.661Z,8.00
2019-03-15T09:40:52.301Z,8.10
2019-03-15T09:43:24.725Z,8.10
2019-03-15T09:45:57.461Z,8.20
2019-03-15T09:48:30.240Z,8.20
2019-03-15T09:51:02.111Z,8.20
2019-03-15T09:53:34.623Z,8.40
2019-03-15T09:56:08.003Z,8.40
2019-03-15T09:58:41.545Z,8.40
2019-03-15T10:01:14.236Z,8.30
2019-03-15T10:03:47.282Z,8.30
2019-03-15T10:06:20.130Z,8.40
2019-03-15T10:08:53.230Z,8.40
2019-03-15T10:11:25.470Z,8.50
2019-03-15T10:13:57.626Z,8.50
2019-03-15T10:16:29.830Z,8.60
2019-03-15T10:19:02.450Z,8.60
2019-03-15T10:21:34.792Z,8.60
2019-03-15T10:24:07.470Z,8.60
2019-03-15T10:26:39.710Z,8.70
2019-03-15T10:29:15.637Z,8.70
2019-03-15T10:31:46.432Z,8.70
2019-03-15T10:34:19.315Z,8.80
2019-03-15T10:36:52.270Z,8.90
2019-03-15T10:39:25.310Z,9.00
2019-03-15T10:41:57.842Z,8.90
2019-03-15T10:44:31.170Z,8.80
2019-03-15T10:47:03.910Z,8.80
2019-03-15T10:49:36.679Z,8.80
2019-03-15T10:52:09.920Z,8.90
2019-03-15T10:54:42.918Z,8.90
2019-03-15T10:57:14.865Z,8.90
2019-03-15T10:59:47.436Z,8.90
2019-03-15T11:02:20.384Z,8.90
2019-03-15T11:04:53.156Z,8.90
2019-03-15T11:07:25.637Z,9.00
2019-03-15T11:09:58.026Z,8.90
2019-03-15T11:12:30.020Z,8.90
2019-03-15T11:15:02.640Z,9.00
2019-03-15T11:17:35.541Z,9.10
2019-03-15T11:20:08.547Z,9.10
2019-03-15T11:22:40.888Z,9.00
2019-03-15T11:25:13.512Z,9.00
2019-03-15T11:27:46.296Z,9.00
2019-03-15T11:30:18.615Z,9.00
2019-03-15T11:32:52.074Z,9.00
2019-03-15T11:35:24.597Z,9.00
2019-03-15T11:37:56.734Z,9.00
2019-03-15T11:40:30.336Z,9.10
2019-03-15T11:43:03.894Z,9.10
2019-03-15T11:45:36.114Z,9.10
2019-03-15T11:48:09.144Z,9.10
2019-03-15T11:50:41.415Z,9.20
2019-03-15T11:53:13.775Z,9.20
2019-03-15T11:55:47.395Z,9.20
2019-03-15T11:58:20.299Z,9.20
2019-03-15T12:00:52.915Z,9.20
2019-03-15T12:03:25.900Z,9.30
2019-03-15T12:05:59.334Z,9.20
2019-03-15T12:08:31.441Z,9.30
2019-03-15T12:11:03.696Z,9.30
2019-03-15T12:13:36.638Z,9.40
2019-03-15T12:16:10.477Z,9.40
2019-03-15T12:18:43.262Z,9.50
2019-03-15T12:21:15.875Z,9.60
2019-03-15T12:23:48.214Z,9.60
2019-03-15T12:26:22.354Z,9.60
2019-03-15T12:28:55.634Z,9.60
2019-03-15T12:31:28.396Z,9.70
2019-03-15T12:34:01.035Z,9.70
2019-03-15T12:36:34.154Z,9.70
2019-03-15T12:39:08.715Z,9.80
2019-03-15T12:41:42.204Z,9.80
2019-03-15T12:44:14.164Z,9.90
2019-03-15T12:46:46.640Z,9.90
2019-03-15T12:49:19.883Z,10.00
2019-03-15T12:51:52.942Z,10.00
2019-03-15T12:54:25.283Z,10.10
2019-03-15T12:56:58.524Z,10.10
2019-03-15T12:59:32.389Z,10.10
2019-03-15T13:02:05.803Z,10.10
2019-03-15T13:04:38.622Z,10.10
2019-03-15T13:07:11.182Z,10.10
2019-03-15T13:09:44.142Z,10.10
2019-03-15T13:12:17.522Z,10.20
2019-03-15T13:14:51.203Z,10.20
2019-03-15T13:17:23.350Z,10.30
2019-03-15T13:19:56.642Z,10.30
2019-03-15T13:22:30.142Z,10.40
2019-03-15T13:25:03.923Z,10.40
2019-03-15T13:27:36.721Z,10.50
2019-03-15T13:30:09.901Z,10.60
2019-03-15T13:32:42.482Z,10.50
2019-03-15T13:35:15.184Z,10.50
2019-03-15T13:37:47.763Z,10.60
2019-03-15T13:40:19.723Z,10.60
2019-03-15T13:42:52.422Z,10.70
2019-03-15T13:45:24.733Z,10.70
2019-03-15T13:47:57.622Z,10.70
2019-03-15T13:50:30.882Z,10.70
2019-03-15T13:53:03.562Z,10.70
2019-03-15T13:55:35.963Z,10.80
2019-03-15T13:58:09.365Z,10.80
2019-03-15T14:00:42.202Z,10.90
2019-03-15T14:03:15.622Z,10.90
2019-03-15T14:05:48.003Z,10.90
2019-03-15T14:08:20.263Z,11.00
2019-03-15T14:10:53.322Z,11.00
2019-03-15T14:13:25.903Z,11.00
2019-03-15T14:16:01.442Z,11.00
2019-03-15T14:18:33.543Z,11.10
2019-03-15T14:21:06.202Z,11.10
2019-03-15T14:23:38.642Z,11.10
2019-03-15T14:26:11.154Z,11.10
2019-03-15T14:28:44.382Z,11.20
2019-03-15T14:31:17.022Z,11.20
2019-03-15T14:33:50.542Z,11.20
2019-03-15T14:36:23.522Z,11.30
2019-03-15T14:38:56.533Z,11.30
2019-03-15T14:41:28.918Z,11.30
2019-03-15T14:44:01.905Z,11.30
2019-03-15T14:46:35.058Z,11.40
2019-03-15T14:49:07.117Z,11.40
2019-03-15T14:51:39.757Z,11.40
2019-03-15T14:54:12.757Z,11.40
2019-03-15T14:56:45.557Z,11.50
2019-03-15T14:59:19.118Z,11.40
2019-03-15T15:01:52.238Z,11.50
2019-03-15T15:04:24.417Z,11.50
2019-03-15T15:06:56.698Z,11.50
2019-03-15T15:09:29.738Z,11.50
2019-03-15T15:12:02.078Z,11.50
2019-03-15T15:14:35.037Z,11.50
2019-03-15T15:17:08.877Z,11.60
2019-03-15T15:19:42.318Z,11.60
2019-03-15T15:22:15.458Z,11.60
2019-03-15T15:24:48.867Z,11.70
2019-03-15T15:27:25.295Z,11.70
2019-03-15T15:29:56.698Z,11.70
2019-03-15T15:32:29.978Z,11.60
2019-03-15T15:35:03.679Z,11.60
2019-03-15T15:37:37.077Z,11.60
2019-03-15T15:40:10.083Z,11.60
2019-03-15T15:42:43.341Z,11.60
2019-03-15T15:45:16.462Z,11.60
2019-03-15T15:47:49.182Z,11.70
2019-03-15T15:50:21.498Z,11.80
2019-03-15T15:52:55.700Z,11.70
2019-03-15T15:55:28.078Z,11.70
2019-03-15T15:58:01.198Z,11.80
2019-03-15T16:00:34.117Z,11.80
2019-03-15T16:03:07.719Z,11.70
2019-03-15T16:05:40.079Z,11.80
2019-03-15T16:08:12.739Z,11.80
2019-03-15T16:10:45.937Z,11.70
2019-03-15T16:13:18.619Z,11.70
2019-03-15T16:15:51.857Z,11.70
2019-03-15T16:18:26.774Z,11.70
2019-03-15T16:20:59.300Z,11.70
2019-03-15T16:23:31.777Z,11.70
2019-03-15T16:26:05.216Z,11.70
2019-03-15T16:28:37.577Z,11.70
2019-03-15T16:31:09.507Z,11.70
2019-03-15T16:33:44.508Z,11.70
2019-03-15T16:36:16.882Z,11.70
2019-03-15T16:38:48.925Z,11.80
2019-03-15T16:41:21.787Z,11.70
2019-03-15T16:43:54.808Z,11.80
2019-03-15T16:46:27.510Z,11.70
2019-03-15T16:49:01.047Z,11.70
2019-03-15T16:51:34.208Z,11.80
2019-03-15T16:54:06.748Z,11.80
2019-03-15T16:56:38.967Z,11.80
2019-03-15T16:59:12.666Z,11.80
2019-03-15T17:01:45.887Z,11.90
2019-03-15T17:04:19.035Z,11.90
2019-03-15T17:06:51.490Z,11.90
2019-03-15T17:09:24.407Z,11.90
2019-03-15T17:11:57.608Z,11.90
2019-03-15T17:14:30.607Z,12.00
2019-03-15T17:17:03.929Z,12.00
2019-03-15T17:19:36.846Z,12.00
2019-03-15T17:22:09.888Z,12.00
2019-03-15T17:24:42.287Z,12.10
2019-03-15T17:27:15.328Z,12.00
2019-03-15T17:29:47.988Z,12.10
2019-03-15T17:32:20.948Z,12.10
2019-03-15T17:34:53.527Z,12.10
2019-03-15T17:37:26.327Z,12.10
2019-03-15T17:39:58.987Z,12.10
2019-03-15T17:42:32.446Z,12.10
2019-03-15T17:45:05.153Z,12.20
2019-03-15T17:47:37.648Z,12.20
2019-03-15T17:50:12.032Z,12.20
2019-03-15T17:52:44.811Z,12.20
2019-03-15T17:55:17.595Z,12.20
2019-03-15T17:57:50.531Z,12.10
2019-03-15T18:00:33.990Z,12.20
2019-03-15T18:03:19.843Z,12.20
2019-03-15T18:05:40.887Z,12.20
2019-03-15T18:08:14.110Z,12.20
2019-03-15T18:10:47.767Z,12.20
2019-03-15T18:13:20.687Z,12.20
2019-03-15T18:15:52.947Z,12.20
2019-03-15T18:18:25.387Z,12.20
2019-03-15T18:20:58.666Z,12.30
2019-03-15T18:23:31.726Z,12.30
2019-03-15T18:26:05.767Z,12.30
2019-03-15T18:28:38.647Z,12.30
2019-03-15T18:31:11.147Z,12.30
2019-03-15T18:33:43.567Z,12.30
2019-03-15T18:36:16.948Z,12.30
2019-03-15T18:38:50.467Z,12.30
2019-03-15T18:41:24.147Z,12.30
2019-03-15T18:43:56.948Z,12.30
2019-03-15T18:46:29.467Z,12.30
2019-03-15T18:49:02.446Z,12.40
2019-03-15T18:51:34.930Z,12.40
2019-03-15T18:54:16.945Z,12.40
2019-03-15T18:56:41.627Z,12.40
2019-03-15T18:59:13.986Z,12.40
2019-03-15T19:01:46.686Z,12.40
2019-03-15T19:04:19.846Z,12.50
2019-03-15T19:06:53.749Z,12.50
2019-03-15T19:09:26.289Z,12.50
2019-03-15T19:11:58.807Z,12.60
2019-03-15T19:14:31.835Z,12.60
2019-03-15T19:17:05.207Z,12.60
2019-03-15T19:19:38.489Z,12.50
2019-03-15T19:22:11.966Z,12.50
2019-03-15T19:24:45.806Z,12.50
2019-03-15T19:27:19.466Z,12.60
2019-03-15T19:29:53.863Z,12.60
2019-03-15T19:32:26.387Z,12.60
2019-03-15T19:34:59.887Z,12.60
2019-03-15T19:37:33.994Z,12.60
2019-03-15T19:40:07.227Z,12.50
2019-03-15T19:42:39.747Z,12.50
2019-03-15T19:45:14.218Z,12.60
2019-03-15T19:47:47.346Z,12.70
2019-03-15T19:50:18.486Z,12.70
2019-03-15T19:52:53.186Z,12.60
2019-03-15T19:55:25.807Z,12.60
2019-03-15T19:57:58.010Z,12.60
2019-03-15T20:00:31.367Z,12.60
2019-03-15T20:03:04.070Z,12.70
2019-03-15T20:05:37.847Z,12.60
2019-03-15T20:08:11.207Z,12.70
2019-03-15T20:10:43.766Z,12.60
2019-03-15T20:13:16.966Z,12.60
2019-03-15T20:15:50.987Z,12.70
2019-03-15T20:18:24.227Z,12.60
2019-03-15T20:20:57.607Z,12.70
2019-03-15T20:23:33.067Z,12.80
2019-03-15T20:26:05.353Z,12.80
2019-03-15T20:28:38.246Z,12.70
2019-03-15T20:31:11.346Z,12.70
2019-03-15T20:33:43.666Z,12.80
2019-03-15T20:36:16.069Z,12.80
2019-03-15T20:38:48.579Z,12.80
2019-03-15T20:41:21.867Z,12.80
2019-03-15T20:43:54.200Z,12.80
2019-03-15T20:46:35.772Z,12.80
2019-03-15T20:49:01.492Z,12.80
2019-03-15T20:51:34.306Z,12.80
2019-03-15T20:54:07.069Z,12.80
2019-03-15T20:56:39.467Z,12.80
2019-03-15T20:59:12.087Z,12.80
2019-03-15T21:01:45.147Z,12.90
2019-03-15T21:04:18.590Z,12.90
2019-03-15T21:06:51.726Z,12.80
2019-03-15T21:09:24.729Z,12.90
2019-03-15T21:11:57.506Z,12.80
2019-03-15T21:14:30.486Z,12.80
2019-03-15T21:17:03.647Z,12.80
2019-03-15T21:19:36.190Z,12.80
2019-03-15T21:22:08.729Z,12.80
2019-03-15T21:24:41.746Z,12.80
2019-03-15T21:27:14.547Z,12.80
2019-03-15T21:29:47.047Z,12.80
2019-03-15T21:32:19.542Z,12.80
2019-03-15T21:34:52.165Z,12.70
2019-03-15T21:37:25.526Z,12.80
2019-03-15T21:39:59.127Z,12.80
2019-03-15T21:42:32.406Z,12.80
2019-03-15T21:45:05.185Z,12.80
2019-03-15T21:47:37.967Z,12.70
2019-03-15T21:50:15.248Z,12.80
2019-03-15T21:52:48.567Z,12.80
2019-03-15T21:55:21.745Z,12.70
2019-03-15T21:57:54.370Z,12.70
2019-03-15T22:00:27.426Z,12.70
2019-03-15T22:03:00.286Z,12.80
2019-03-15T22:05:33.046Z,12.80
2019-03-15T22:08:05.867Z,12.80
2019-03-15T22:10:38.626Z,12.80
2019-03-15T22:13:11.949Z,12.80
2019-03-15T22:15:44.967Z,12.80
2019-03-15T22:18:18.190Z,12.80
2019-03-15T22:20:51.346Z,12.80
2019-03-15T22:23:23.431Z,12.80
2019-03-15T22:25:56.410Z,12.80
2019-03-15T22:28:29.854Z,12.80
2019-03-15T22:31:15.855Z,12.80
2019-03-15T22:33:37.326Z,12.80
2019-03-15T22:36:10.365Z,12.80
2019-03-15T22:38:42.411Z,12.80
2019-03-15T22:41:15.229Z,12.80
2019-03-15T22:43:49.026Z,12.80
2019-03-15T22:46:21.666Z,12.80
2019-03-15T22:48:54.409Z,12.80
2019-03-15T22:51:27.966Z,12.70
2019-03-15T22:54:01.809Z,12.80
2019-03-15T22:56:34.526Z,12.80
2019-03-15T22:59:06.969Z,12.80
2019-03-15T23:01:39.392Z,12.80
2019-03-15T23:04:12.930Z,12.80
2019-03-15T23:06:45.146Z,12.80
2019-03-15T23:09:18.009Z,12.80
2019-03-15T23:11:50.946Z,12.80
2019-03-15T23:14:24.146Z,12.70
2019-03-15T23:16:56.788Z,12.70
2019-03-15T23:19:29.642Z,12.70
2019-03-15T23:22:02.722Z,12.70
2019-03-15T23:24:35.982Z,12.70
2019-03-15T23:27:08.141Z,12.70
2019-03-15T23:29:40.701Z,12.70
2019-03-15T23:32:14.281Z,12.70
2019-03-15T23:34:47.601Z,12.70
2019-03-15T23:37:21.223Z,12.70
2019-03-15T23:39:54.841Z,12.70
2019-03-15T23:42:27.881Z,12.70
2019-03-15T23:45:00.801Z,12.70
2019-03-15T23:47:33.341Z,12.70
2019-03-15T23:50:06.303Z,12.70
2019-03-15T23:52:39.601Z,12.70
2019-03-15T23:55:12.888Z,12.70
2019-03-15T23:57:45.642Z,12.70
